sensor_id;sensor_type;location;lat;lon;timestamp;pressure;altitude;pressure_sealevel;temperature;humidity
68193;BME280;55012;47.562;18.414;2023-02-01T00:01:17;99782.00;;;1.46;100.00
68193;BME280;55012;47.562;18.414;2023-02-01T00:03:42;99779.06;;;1.47;100.00
68193;BME280;55012;47.562;18.414;2023-02-01T00:06:08;99770.28;;;1.47;100.00
68193;BME280;55012;47.562;18.414;2023-02-01T00:08:34;99777.47;;;1.51;100.00
68193;BME280;55012;47.562;18.414;2023-02-01T00:11:02;99777.47;;;1.51;100.00
68193;BME280;55012;47.562;18.414;2023-02-01T00:13:31;99767.31;;;1.48;100.00
68193;BME280;55012;47.562;18.414;2023-02-01T00:16:08;99781.22;;;1.50;100.00
68193;BME280;55012;47.562;18.414;2023-02-01T00:18:34;99773.72;;;1.47;100.00
68193;BME280;55012;47.562;18.414;2023-02-01T00:21:00;99776.94;;;1.49;100.00
68193;BME280;55012;47.562;18.414;2023-02-01T00:23:26;99765.72;;;1.52;100.00
68193;BME280;55012;47.562;18.414;2023-02-01T00:25:52;99769.97;;;1.58;100.00
68193;BME280;55012;47.562;18.414;2023-02-01T00:28:18;99741.16;;;1.60;100.00
68193;BME280;55012;47.562;18.414;2023-02-01T00:30:43;99744.63;;;1.61;100.00
68193;BME280;55012;47.562;18.414;2023-02-01T00:33:09;99714.50;;;1.60;100.00
68193;BME280;55012;47.562;18.414;2023-02-01T00:35:35;99716.09;;;1.61;100.00
68193;BME280;55012;47.562;18.414;2023-02-01T00:38:01;99726.47;;;1.63;100.00
68193;BME280;55012;47.562;18.414;2023-02-01T00:40:27;99700.91;;;1.62;100.00
68193;BME280;55012;47.562;18.414;2023-02-01T00:42:52;99705.66;;;1.65;100.00
68193;BME280;55012;47.562;18.414;2023-02-01T00:45:19;99696.63;;;1.66;100.00
68193;BME280;55012;47.562;18.414;2023-02-01T00:47:45;99677.66;;;1.67;100.00
68193;BME280;55012;47.562;18.414;2023-02-01T00:50:10;99669.13;;;1.71;100.00
68193;BME280;55012;47.562;18.414;2023-02-01T00:52:36;99662.69;;;1.77;100.00
68193;BME280;55012;47.562;18.414;2023-02-01T00:55:01;99665.84;;;1.84;100.00
68193;BME280;55012;47.562;18.414;2023-02-01T00:57:27;99654.31;;;1.88;100.00
68193;BME280;55012;47.562;18.414;2023-02-01T00:59:52;99637.50;;;1.93;100.00
68193;BME280;55012;47.562;18.414;2023-02-01T01:02:18;99644.16;;;1.95;100.00
68193;BME280;55012;47.562;18.414;2023-02-01T01:04:43;99640.13;;;1.98;100.00
68193;BME280;55012;47.562;18.414;2023-02-01T01:07:09;99623.38;;;1.92;100.00
68193;BME280;55012;47.562;18.414;2023-02-01T01:09:34;99624.97;;;1.88;100.00
68193;BME280;55012;47.562;18.414;2023-02-01T01:12:00;99634.91;;;1.83;100.00
68193;BME280;55012;47.562;18.414;2023-02-01T01:14:28;99641.34;;;1.77;100.00
68193;BME280;55012;47.562;18.414;2023-02-01T01:16:54;99629.91;;;1.71;100.00
68193;BME280;55012;47.562;18.414;2023-02-01T01:19:19;99629.41;;;1.64;100.00
68193;BME280;55012;47.562;18.414;2023-02-01T01:21:45;99627.31;;;1.56;100.00
68193;BME280;55012;47.562;18.414;2023-02-01T01:24:10;99616.44;;;1.52;100.00
68193;BME280;55012;47.562;18.414;2023-02-01T01:26:36;99626.06;;;1.43;100.00
68193;BME280;55012;47.562;18.414;2023-02-01T01:29:02;99635.69;;;1.39;100.00
68193;BME280;55012;47.562;18.414;2023-02-01T01:31:28;99641.84;;;1.34;100.00
68193;BME280;55012;47.562;18.414;2023-02-01T01:33:56;99645.31;;;1.30;100.00
68193;BME280;55012;47.562;18.414;2023-02-01T01:36:23;99652.78;;;1.28;100.00
68193;BME280;55012;47.562;18.414;2023-02-01T01:38:49;99655.75;;;1.26;100.00
68193;BME280;55012;47.562;18.414;2023-02-01T01:41:18;99663.19;;;1.29;100.00
68193;BME280;55012;47.562;18.414;2023-02-01T01:46:19;99670.06;;;1.40;100.00
68193;BME280;55012;47.562;18.414;2023-02-01T01:48:55;99671.91;;;1.45;100.00
68193;BME280;55012;47.562;18.414;2023-02-01T01:51:23;99679.06;;;1.55;100.00
68193;BME280;55012;47.562;18.414;2023-02-01T01:54:01;99681.44;;;1.61;100.00
68193;BME280;55012;47.562;18.414;2023-02-01T01:56:30;99695.25;;;1.68;100.00
68193;BME280;55012;47.562;18.414;2023-02-01T01:58:57;99696.88;;;1.64;100.00
68193;BME280;55012;47.562;18.414;2023-02-01T02:01:23;99713.41;;;1.66;100.00
68193;BME280;55012;47.562;18.414;2023-02-01T02:03:50;99717.97;;;1.66;100.00
68193;BME280;55012;47.562;18.414;2023-02-01T02:08:55;99704.88;;;1.64;100.00
68193;BME280;55012;47.562;18.414;2023-02-01T02:11:20;99700.88;;;1.67;100.00
68193;BME280;55012;47.562;18.414;2023-02-01T02:13:48;99700.31;;;1.70;100.00
68193;BME280;55012;47.562;18.414;2023-02-01T02:16:31;99701.38;;;1.74;100.00
68193;BME280;55012;47.562;18.414;2023-02-01T02:19:18;99698.16;;;1.77;100.00
68193;BME280;55012;47.562;18.414;2023-02-01T02:27:00;99717.28;;;1.89;100.00
68193;BME280;55012;47.562;18.414;2023-02-01T02:33:00;99734.06;;;2.00;100.00
68193;BME280;55012;47.562;18.414;2023-02-01T02:38:32;99734.78;;;2.06;100.00
68193;BME280;55012;47.562;18.414;2023-02-01T02:41:03;99727.06;;;2.09;100.00
68193;BME280;55012;47.562;18.414;2023-02-01T02:43:54;99735.28;;;2.13;100.00
68193;BME280;55012;47.562;18.414;2023-02-01T02:46:47;99735.81;;;2.15;100.00
68193;BME280;55012;47.562;18.414;2023-02-01T02:49:42;99749.16;;;2.15;100.00
68193;BME280;55012;47.562;18.414;2023-02-01T02:52:33;99764.66;;;2.13;100.00
68193;BME280;55012;47.562;18.414;2023-02-01T02:55:19;99754.78;;;2.13;100.00
68193;BME280;55012;47.562;18.414;2023-02-01T02:57:46;99760.38;;;2.12;100.00
68193;BME280;55012;47.562;18.414;2023-02-01T03:00:32;99758.00;;;2.10;100.00
68193;BME280;55012;47.562;18.414;2023-02-01T03:03:17;99770.53;;;2.10;100.00
68193;BME280;55012;47.562;18.414;2023-02-01T03:06:02;99763.91;;;2.07;100.00
68193;BME280;55012;47.562;18.414;2023-02-01T03:08:29;99763.34;;;2.05;100.00
68193;BME280;55012;47.562;18.414;2023-02-01T03:11:03;99781.22;;;2.05;100.00
68193;BME280;55012;47.562;18.414;2023-02-01T03:19:03;99781.28;;;1.94;100.00
68193;BME280;55012;47.562;18.414;2023-02-01T03:21:39;99782.94;;;1.90;100.00
68193;BME280;55012;47.562;18.414;2023-02-01T03:24:15;99784.78;;;1.90;100.00
68193;BME280;55012;47.562;18.414;2023-02-01T03:26:49;99795.19;;;1.86;100.00
68193;BME280;55012;47.562;18.414;2023-02-01T03:29:23;99794.69;;;1.79;100.00
68193;BME280;55012;47.562;18.414;2023-02-01T03:31:50;99773.91;;;1.71;100.00
68193;BME280;55012;47.562;18.414;2023-02-01T03:34:16;99788.59;;;1.68;100.00
68193;BME280;55012;47.562;18.414;2023-02-01T03:36:48;99791.56;;;1.67;100.00
68193;BME280;55012;47.562;18.414;2023-02-01T03:41:51;99799.84;;;1.60;100.00
68193;BME280;55012;47.562;18.414;2023-02-01T03:46:54;99798.75;;;1.56;100.00
68193;BME280;55012;47.562;18.414;2023-02-01T03:49:26;99798.81;;;1.46;100.00
68193;BME280;55012;47.562;18.414;2023-02-01T03:51:53;99806.53;;;1.48;100.00
68193;BME280;55012;47.562;18.414;2023-02-01T03:54:20;99799.31;;;1.48;100.00
68193;BME280;55012;47.562;18.414;2023-02-01T03:56:47;99800.41;;;1.52;100.00
68193;BME280;55012;47.562;18.414;2023-02-01T03:59:13;99806.28;;;1.49;100.00
68193;BME280;55012;47.562;18.414;2023-02-01T04:01:40;99807.88;;;1.45;100.00
68193;BME280;55012;47.562;18.414;2023-02-01T04:04:06;99812.16;;;1.41;100.00
68193;BME280;55012;47.562;18.414;2023-02-01T04:06:32;99821.19;;;1.40;100.00
68193;BME280;55012;47.562;18.414;2023-02-01T04:08:57;99819.09;;;1.37;100.00
68193;BME280;55012;47.562;18.414;2023-02-01T04:11:23;99816.97;;;1.34;100.00
68193;BME280;55012;47.562;18.414;2023-02-01T04:13:48;99815.38;;;1.28;100.00
68193;BME280;55012;47.562;18.414;2023-02-01T04:16:14;99812.97;;;1.21;100.00
68193;BME280;55012;47.562;18.414;2023-02-01T04:18:39;99818.56;;;1.20;100.00
68193;BME280;55012;47.562;18.414;2023-02-01T04:21:05;99820.72;;;1.18;100.00
68193;BME280;55012;47.562;18.414;2023-02-01T04:23:30;99816.72;;;1.20;100.00
68193;BME280;55012;47.562;18.414;2023-02-01T04:26:01;99827.91;;;1.17;100.00
68193;BME280;55012;47.562;18.414;2023-02-01T04:28:27;99824.97;;;1.13;100.00
68193;BME280;55012;47.562;18.414;2023-02-01T04:30:52;99828.44;;;1.14;100.00
68193;BME280;55012;47.562;18.414;2023-02-01T04:33:18;99832.44;;;1.11;100.00
68193;BME280;55012;47.562;18.414;2023-02-01T04:35:43;99847.88;;;1.15;100.00
68193;BME280;55012;47.562;18.414;2023-02-01T04:38:09;99843.34;;;1.15;100.00
68193;BME280;55012;47.562;18.414;2023-02-01T04:40:34;99846.03;;;1.15;100.00
68193;BME280;55012;47.562;18.414;2023-02-01T04:43:03;99849.75;;;1.14;100.00
68193;BME280;55012;47.562;18.414;2023-02-01T04:45:29;99842.31;;;1.11;100.00
68193;BME280;55012;47.562;18.414;2023-02-01T04:47:54;99859.06;;;1.06;100.00
68193;BME280;55012;47.562;18.414;2023-02-01T04:50:20;99852.94;;;1.06;100.00
68193;BME280;55012;47.562;18.414;2023-02-01T04:52:45;99843.38;;;1.10;100.00
68193;BME280;55012;47.562;18.414;2023-02-01T04:55:11;99845.75;;;1.11;100.00
68193;BME280;55012;47.562;18.414;2023-02-01T04:57:38;99841.47;;;1.16;100.00
68193;BME280;55012;47.562;18.414;2023-02-01T05:00:06;99848.44;;;1.17;100.00
68193;BME280;55012;47.562;18.414;2023-02-01T05:02:33;99840.97;;;1.19;100.00
68193;BME280;55012;47.562;18.414;2023-02-01T05:04:58;99854.28;;;1.24;100.00
68193;BME280;55012;47.562;18.414;2023-02-01T05:07:24;99846.03;;;1.25;100.00
68193;BME280;55012;47.562;18.414;2023-02-01T05:09:49;99842.00;;;1.23;100.00
68193;BME280;55012;47.562;18.414;2023-02-01T05:12:15;99842.56;;;1.20;100.00
68193;BME280;55012;47.562;18.414;2023-02-01T05:14:59;99839.88;;;1.15;100.00
68193;BME280;55012;47.562;18.414;2023-02-01T05:17:24;99836.19;;;1.10;100.00
68193;BME280;55012;47.562;18.414;2023-02-01T05:19:50;99838.56;;;1.07;100.00
68193;BME280;55012;47.562;18.414;2023-02-01T05:22:15;99840.72;;;1.00;100.00
68193;BME280;55012;47.562;18.414;2023-02-01T05:24:41;99853.75;;;0.96;100.00
68193;BME280;55012;47.562;18.414;2023-02-01T05:27:06;99842.56;;;0.89;100.00
68193;BME280;55012;47.562;18.414;2023-02-01T05:29:32;99850.81;;;0.88;100.00
68193;BME280;55012;47.562;18.414;2023-02-01T05:31:57;99845.47;;;0.82;100.00
68193;BME280;55012;47.562;18.414;2023-02-01T05:34:22;99829.25;;;0.79;100.00
68193;BME280;55012;47.562;18.414;2023-02-01T05:36:48;99838.81;;;0.80;100.00
68193;BME280;55012;47.562;18.414;2023-02-01T05:39:13;99842.28;;;0.80;100.00
68193;BME280;55012;47.562;18.414;2023-02-01T05:41:39;99827.91;;;0.81;100.00
68193;BME280;55012;47.562;18.414;2023-02-01T05:44:04;99820.72;;;0.82;100.00
68193;BME280;55012;47.562;18.414;2023-02-01T05:46:33;99821.00;;;0.86;100.00
68193;BME280;55012;47.562;18.414;2023-02-01T05:48:59;99827.91;;;0.87;100.00
68193;BME280;55012;47.562;18.414;2023-02-01T05:51:24;99827.66;;;0.88;100.00
68193;BME280;55012;47.562;18.414;2023-02-01T05:53:50;99822.03;;;0.90;100.00
68193;BME280;55012;47.562;18.414;2023-02-01T05:56:15;99826.59;;;0.94;100.00
68193;BME280;55012;47.562;18.414;2023-02-01T05:58:41;99818.84;;;0.98;100.00
68193;BME280;55012;47.562;18.414;2023-02-01T06:01:06;99813.00;;;1.01;100.00
68193;BME280;55012;47.562;18.414;2023-02-01T06:03:32;99810.34;;;1.01;100.00
68193;BME280;55012;47.562;18.414;2023-02-01T06:05:57;99813.81;;;1.01;100.00
68193;BME280;55012;47.562;18.414;2023-02-01T06:08:23;99816.19;;;1.03;100.00
68193;BME280;55012;47.562;18.414;2023-02-01T06:10:50;99815.13;;;1.04;100.00
68193;BME280;55012;47.562;18.414;2023-02-01T06:13:17;99821.53;;;1.03;100.00
68193;BME280;55012;47.562;18.414;2023-02-01T06:15:42;99819.41;;;1.00;100.00
68193;BME280;55012;47.562;18.414;2023-02-01T06:18:09;99825.78;;;0.99;100.00
68193;BME280;55012;47.562;18.414;2023-02-01T06:20:34;99814.63;;;0.92;100.00
68193;BME280;55012;47.562;18.414;2023-02-01T06:23:00;99819.41;;;0.95;100.00
68193;BME280;55012;47.562;18.414;2023-02-01T06:25:25;99822.59;;;0.92;100.00
68193;BME280;55012;47.562;18.414;2023-02-01T06:27:51;99821.25;;;0.89;100.00
68193;BME280;55012;47.562;18.414;2023-02-01T06:30:16;99816.19;;;0.82;100.00
68193;BME280;55012;47.562;18.414;2023-02-01T06:32:42;99822.34;;;0.83;100.00
68193;BME280;55012;47.562;18.414;2023-02-01T06:35:09;99824.16;;;0.82;100.00
68193;BME280;55012;47.562;18.414;2023-02-01T06:37:42;99835.09;;;0.81;100.00
68193;BME280;55012;47.562;18.414;2023-02-01T06:40:08;99837.50;;;0.88;100.00
68193;BME280;55012;47.562;18.414;2023-02-01T06:42:34;99842.03;;;0.92;100.00
68193;BME280;55012;47.562;18.414;2023-02-01T06:44:59;99846.28;;;0.98;100.00
68193;BME280;55012;47.562;18.414;2023-02-01T06:47:25;99851.38;;;1.10;100.00
68193;BME280;55012;47.562;18.414;2023-02-01T06:49:50;99858.81;;;1.23;100.00
68193;BME280;55012;47.562;18.414;2023-02-01T06:52:16;99854.28;;;1.34;100.00
68193;BME280;55012;47.562;18.414;2023-02-01T06:54:41;99860.13;;;1.51;100.00
68193;BME280;55012;47.562;18.414;2023-02-01T06:57:06;99858.47;;;1.71;100.00
68193;BME280;55012;47.562;18.414;2023-02-01T06:59:32;99857.34;;;1.92;100.00
68193;BME280;55012;47.562;18.414;2023-02-01T07:01:57;99866.09;;;2.08;100.00
68193;BME280;55012;47.562;18.414;2023-02-01T07:04:23;99857.75;;;2.19;100.00
68193;BME280;55012;47.562;18.414;2023-02-01T07:06:48;99860.66;;;2.28;100.00
68193;BME280;55012;47.562;18.414;2023-02-01T07:09:14;99863.00;;;2.40;100.00
68193;BME280;55012;47.562;18.414;2023-02-01T07:11:39;99855.44;;;2.57;100.00
68193;BME280;55012;47.562;18.414;2023-02-01T07:14:08;99857.19;;;2.72;100.00
68193;BME280;55012;47.562;18.414;2023-02-01T07:16:34;99868.09;;;2.80;100.00
68193;BME280;55012;47.562;18.414;2023-02-01T07:18:59;99867.28;;;2.85;100.00
68193;BME280;55012;47.562;18.414;2023-02-01T07:21:25;99861.91;;;2.90;100.00
68193;BME280;55012;47.562;18.414;2023-02-01T07:23:53;99863.78;;;2.90;100.00
68193;BME280;55012;47.562;18.414;2023-02-01T07:26:18;99871.50;;;2.91;100.00
68193;BME280;55012;47.562;18.414;2023-02-01T07:28:45;99860.81;;;2.91;100.00
68193;BME280;55012;47.562;18.414;2023-02-01T07:31:14;99861.91;;;2.90;100.00
68193;BME280;55012;47.562;18.414;2023-02-01T07:33:44;99860.53;;;2.93;100.00
68193;BME280;55012;47.562;18.414;2023-02-01T07:36:14;99858.91;;;2.97;100.00
68193;BME280;55012;47.562;18.414;2023-02-01T07:38:41;99861.25;;;3.03;100.00
68193;BME280;55012;47.562;18.414;2023-02-01T07:41:07;99862.56;;;3.06;100.00
68193;BME280;55012;47.562;18.414;2023-02-01T07:43:34;99866.00;;;3.12;100.00
68193;BME280;55012;47.562;18.414;2023-02-01T07:45:59;99874.22;;;3.20;100.00
68193;BME280;55012;47.562;18.414;2023-02-01T07:48:26;99876.53;;;3.32;100.00
68193;BME280;55012;47.562;18.414;2023-02-01T07:51:15;99878.03;;;3.43;100.00
68193;BME280;55012;47.562;18.414;2023-02-01T07:53:41;99868.34;;;3.47;100.00
68193;BME280;55012;47.562;18.414;2023-02-01T07:56:25;99873.19;;;3.45;100.00
68193;BME280;55012;47.562;18.414;2023-02-01T07:58:52;99880.50;;;3.40;100.00
68193;BME280;55012;47.562;18.414;2023-02-01T08:01:22;99893.75;;;3.50;100.00
68193;BME280;55012;47.562;18.414;2023-02-01T08:03:57;99894.75;;;3.59;100.00
68193;BME280;55012;47.562;18.414;2023-02-01T08:06:24;99899.19;;;3.69;100.00
68193;BME280;55012;47.562;18.414;2023-02-01T08:08:51;99899.38;;;3.77;100.00
68193;BME280;55012;47.562;18.414;2023-02-01T08:11:18;99904.88;;;3.91;100.00
68193;BME280;55012;47.562;18.414;2023-02-01T08:13:44;99910.44;;;3.94;100.00
68193;BME280;55012;47.562;18.414;2023-02-01T08:16:13;99901.31;;;3.95;100.00
68193;BME280;55012;47.562;18.414;2023-02-01T08:18:39;99898.09;;;3.99;100.00
68193;BME280;55012;47.562;18.414;2023-02-01T08:21:07;99883.34;;;4.01;100.00
68193;BME280;55012;47.562;18.414;2023-02-01T08:23:34;99895.41;;;3.99;100.00
68193;BME280;55012;47.562;18.414;2023-02-01T08:26:16;99880.44;;;3.98;100.00
68193;BME280;55012;47.562;18.414;2023-02-01T08:28:45;99897.63;;;3.91;100.00
68193;BME280;55012;47.562;18.414;2023-02-01T08:31:13;99894.53;;;3.79;100.00
68193;BME280;55012;47.562;18.414;2023-02-01T08:33:43;99897.78;;;3.76;100.00
68193;BME280;55012;47.562;18.414;2023-02-01T08:36:12;99889.00;;;3.71;100.00
68193;BME280;55012;47.562;18.414;2023-02-01T08:38:39;99881.28;;;3.64;100.00
68193;BME280;55012;47.562;18.414;2023-02-01T08:41:12;99883.13;;;3.69;100.00
68193;BME280;55012;47.562;18.414;2023-02-01T08:43:38;99870.81;;;3.73;100.00
68193;BME280;55012;47.562;18.414;2023-02-01T08:46:04;99870.22;;;3.76;100.00
68193;BME280;55012;47.562;18.414;2023-02-01T08:48:30;99871.25;;;3.80;100.00
68193;BME280;55012;47.562;18.414;2023-02-01T08:50:55;99861.88;;;3.82;100.00
68193;BME280;55012;47.562;18.414;2023-02-01T08:53:21;99850.59;;;3.85;100.00
68193;BME280;55012;47.562;18.414;2023-02-01T08:55:47;99841.47;;;3.86;100.00
68193;BME280;55012;47.562;18.414;2023-02-01T08:58:13;99850.28;;;3.87;100.00
68193;BME280;55012;47.562;18.414;2023-02-01T09:00:43;99860.44;;;3.90;100.00
68193;BME280;55012;47.562;18.414;2023-02-01T09:03:11;99878.88;;;3.91;100.00
68193;BME280;55012;47.562;18.414;2023-02-01T09:05:37;99876.84;;;3.83;100.00
68193;BME280;55012;47.562;18.414;2023-02-01T09:08:02;99877.38;;;3.80;100.00
68193;BME280;55012;47.562;18.414;2023-02-01T09:10:28;99873.41;;;3.78;100.00
68193;BME280;55012;47.562;18.414;2023-02-01T09:12:53;99880.63;;;3.77;100.00
68193;BME280;55012;47.562;18.414;2023-02-01T09:15:18;99877.13;;;3.82;100.00
68193;BME280;55012;47.562;18.414;2023-02-01T09:17:44;99878.94;;;3.86;100.00
68193;BME280;55012;47.562;18.414;2023-02-01T09:20:11;99876.50;;;3.90;100.00
68193;BME280;55012;47.562;18.414;2023-02-01T09:22:36;99883.16;;;3.92;100.00
68193;BME280;55012;47.562;18.414;2023-02-01T09:25:02;99878.59;;;3.93;100.00
68193;BME280;55012;47.562;18.414;2023-02-01T09:27:28;99874.56;;;3.95;100.00
68193;BME280;55012;47.562;18.414;2023-02-01T09:29:53;99870.78;;;3.97;100.00
68193;BME280;55012;47.562;18.414;2023-02-01T09:32:23;99886.59;;;3.98;100.00
68193;BME280;55012;47.562;18.414;2023-02-01T09:34:52;99873.19;;;3.98;100.00
68193;BME280;55012;47.562;18.414;2023-02-01T09:37:18;99869.16;;;4.01;100.00
68193;BME280;55012;47.562;18.414;2023-02-01T09:39:44;99861.34;;;4.04;100.00
68193;BME280;55012;47.562;18.414;2023-02-01T09:42:50;99857.31;;;4.07;100.00
68193;BME280;55012;47.562;18.414;2023-02-01T09:48:14;99860.16;;;4.15;100.00
68193;BME280;55012;47.562;18.414;2023-02-01T09:50:45;99852.63;;;4.17;100.00
68193;BME280;55012;47.562;18.414;2023-02-01T09:53:30;99844.78;;;4.21;100.00
68193;BME280;55012;47.562;18.414;2023-02-01T09:56:21;99847.41;;;4.26;100.00
68193;BME280;55012;47.562;18.414;2023-02-01T10:01:24;99831.66;;;4.43;100.00
68193;BME280;55012;47.562;18.414;2023-02-01T10:04:01;99837.44;;;4.50;100.00
68193;BME280;55012;47.562;18.414;2023-02-01T10:11:53;99828.31;;;4.70;100.00
68193;BME280;55012;47.562;18.414;2023-02-01T10:17:16;99824.28;;;5.05;100.00
68193;BME280;55012;47.562;18.414;2023-02-01T10:22:43;99824.84;;;5.35;100.00
68193;BME280;55012;47.562;18.414;2023-02-01T10:28:03;99819.00;;;5.47;100.00
68193;BME280;55012;47.562;18.414;2023-02-01T10:30:41;99815.00;;;5.44;100.00
68193;BME280;55012;47.562;18.414;2023-02-01T10:33:22;99808.34;;;5.42;100.00
68193;BME280;55012;47.562;18.414;2023-02-01T10:35:54;99796.03;;;5.41;100.00
68193;BME280;55012;47.562;18.414;2023-02-01T10:38:29;99785.19;;;5.46;100.00
68193;BME280;55012;47.562;18.414;2023-02-01T10:40:59;99766.31;;;5.51;100.00
68193;BME280;55012;47.562;18.414;2023-02-01T10:43:26;99768.91;;;5.56;100.00
68193;BME280;55012;47.562;18.414;2023-02-01T10:45:52;99762.34;;;5.62;100.00
68193;BME280;55012;47.562;18.414;2023-02-01T10:48:18;99759.16;;;5.74;100.00
68193;BME280;55012;47.562;18.414;2023-02-01T10:50:55;99748.69;;;5.86;100.00
68193;BME280;55012;47.562;18.414;2023-02-01T10:56:06;99756.59;;;5.96;100.00
68193;BME280;55012;47.562;18.414;2023-02-01T10:58:32;99748.03;;;5.94;100.00
68193;BME280;55012;47.562;18.414;2023-02-01T11:01:03;99750.28;;;5.87;100.00
68193;BME280;55012;47.562;18.414;2023-02-01T11:04:05;99745.34;;;5.80;100.00
68193;BME280;55012;47.562;18.414;2023-02-01T11:06:33;99730.91;;;5.76;100.00
68193;BME280;55012;47.562;18.414;2023-02-01T11:11:30;99719.28;;;5.81;100.00
68193;BME280;55012;47.562;18.414;2023-02-01T11:13:58;99717.88;;;5.83;100.00
68193;BME280;55012;47.562;18.414;2023-02-01T11:16:36;99710.94;;;5.82;100.00
68193;BME280;55012;47.562;18.414;2023-02-01T11:19:03;99699.50;;;5.77;100.00
68193;BME280;55012;47.562;18.414;2023-02-01T11:21:29;99694.66;;;5.65;100.00
68193;BME280;55012;47.562;18.414;2023-02-01T11:23:55;99698.53;;;5.45;100.00
68193;BME280;55012;47.562;18.414;2023-02-01T11:26:26;99707.78;;;5.25;100.00
68193;BME280;55012;47.562;18.414;2023-02-01T11:29:03;99725.81;;;4.92;100.00
68193;BME280;55012;47.562;18.414;2023-02-01T11:31:29;99718.28;;;4.62;100.00
68193;BME280;55012;47.562;18.414;2023-02-01T11:33:59;99778.78;;;4.11;100.00
68193;BME280;55012;47.562;18.414;2023-02-01T11:36:28;99768.88;;;3.69;100.00
68193;BME280;55012;47.562;18.414;2023-02-01T11:41:34;99760.00;;;3.26;100.00
68193;BME280;55012;47.562;18.414;2023-02-01T11:44:38;99791.59;;;3.24;100.00
68193;BME280;55012;47.562;18.414;2023-02-01T11:47:30;99796.47;;;3.17;100.00
68193;BME280;55012;47.562;18.414;2023-02-01T11:50:02;99711.28;;;3.05;100.00
68193;BME280;55012;47.562;18.414;2023-02-01T11:55:55;99788.41;;;2.88;100.00
68193;BME280;55012;47.562;18.414;2023-02-01T12:09:53;99652.25;;;2.77;100.00
68193;BME280;55012;47.562;18.414;2023-02-01T12:21:13;99636.53;;;2.76;100.00
68193;BME280;55012;47.562;18.414;2023-02-01T12:32:25;99618.88;;;3.23;100.00
68193;BME280;55012;47.562;18.414;2023-02-01T12:38:17;99607.06;;;3.48;100.00
68193;BME280;55012;47.562;18.414;2023-02-01T12:40:49;99613.75;;;3.45;100.00
68193;BME280;55012;47.562;18.414;2023-02-01T12:43:42;99627.50;;;3.38;100.00
68193;BME280;55012;47.562;18.414;2023-02-01T12:46:14;99628.66;;;3.32;100.00
68193;BME280;55012;47.562;18.414;2023-02-01T12:48:57;99606.53;;;3.27;100.00
68193;BME280;55012;47.562;18.414;2023-02-01T12:51:31;99619.59;;;3.28;100.00
68193;BME280;55012;47.562;18.414;2023-02-01T12:56:32;99597.56;;;3.18;100.00
68193;BME280;55012;47.562;18.414;2023-02-01T12:59:24;99596.19;;;3.20;100.00
68193;BME280;55012;47.562;18.414;2023-02-01T13:02:00;99596.25;;;3.15;100.00
68193;BME280;55012;47.562;18.414;2023-02-01T13:04:34;99603.19;;;3.16;100.00
68193;BME280;55012;47.562;18.414;2023-02-01T13:07:18;99583.41;;;3.17;100.00
68193;BME280;55012;47.562;18.414;2023-02-01T13:09:50;99594.38;;;3.16;100.00
68193;BME280;55012;47.562;18.414;2023-02-01T13:12:26;99587.66;;;3.18;100.00
68193;BME280;55012;47.562;18.414;2023-02-01T13:15:02;99586.63;;;3.14;100.00
68193;BME280;55012;47.562;18.414;2023-02-01T13:17:32;99556.44;;;3.14;100.00
68193;BME280;55012;47.562;18.414;2023-02-01T13:20:23;99591.75;;;3.10;100.00
68193;BME280;55012;47.562;18.414;2023-02-01T13:23:22;99650.72;;;3.19;100.00
68193;BME280;55012;47.562;18.414;2023-02-01T13:25:51;99606.53;;;3.27;100.00
68193;BME280;55012;47.562;18.414;2023-02-01T13:42:58;99556.09;;;3.58;100.00
68193;BME280;55012;47.562;18.414;2023-02-01T13:45:22;99578.00;;;3.60;100.00
68193;BME280;55012;47.562;18.414;2023-02-01T13:47:52;99557.81;;;3.67;100.00
68193;BME280;55012;47.562;18.414;2023-02-01T13:50:24;99543.53;;;3.72;100.00
68193;BME280;55012;47.562;18.414;2023-02-01T13:55:36;99659.03;;;3.79;100.00
68193;BME280;55012;47.562;18.414;2023-02-01T13:58:48;99581.56;;;3.88;100.00
68193;BME280;55012;47.562;18.414;2023-02-01T14:11:55;99606.47;;;3.51;100.00
68193;BME280;55012;47.562;18.414;2023-02-01T14:19:29;99589.91;;;3.86;100.00
68193;BME280;55012;47.562;18.414;2023-02-01T14:21:56;99620.34;;;3.90;100.00
68193;BME280;55012;47.562;18.414;2023-02-01T14:24:27;99574.19;;;3.99;100.00
68193;BME280;55012;47.562;18.414;2023-02-01T14:26:55;99586.19;;;4.01;100.00
68193;BME280;55012;47.562;18.414;2023-02-01T14:47:53;99610.28;;;4.34;100.00
68193;BME280;55012;47.562;18.414;2023-02-01T14:58:10;99621.78;;;4.34;100.00
68193;BME280;55012;47.562;18.414;2023-02-01T15:00:51;99628.53;;;4.32;100.00
68193;BME280;55012;47.562;18.414;2023-02-01T15:09:32;99642.13;;;4.35;100.00
68193;BME280;55012;47.562;18.414;2023-02-01T15:12:26;99659.47;;;4.38;100.00
68193;BME280;55012;47.562;18.414;2023-02-01T15:15:17;99654.06;;;4.43;100.00
68193;BME280;55012;47.562;18.414;2023-02-01T15:17:53;99677.38;;;4.42;100.00
68193;BME280;55012;47.562;18.414;2023-02-01T15:20:28;99673.59;;;4.43;100.00
68193;BME280;55012;47.562;18.414;2023-02-01T15:22:55;99676.56;;;4.42;100.00
68193;BME280;55012;47.562;18.414;2023-02-01T15:27:51;99679.63;;;4.35;100.00
68193;BME280;55012;47.562;18.414;2023-02-01T15:32:48;99685.78;;;4.36;100.00
68193;BME280;55012;47.562;18.414;2023-02-01T15:35:39;99694.59;;;4.36;100.00
68193;BME280;55012;47.562;18.414;2023-02-01T15:43:31;99686.28;;;4.38;100.00
68193;BME280;55012;47.562;18.414;2023-02-01T15:46:02;99705.31;;;4.36;100.00
68193;BME280;55012;47.562;18.414;2023-02-01T15:48:37;99695.69;;;4.35;100.00
68193;BME280;55012;47.562;18.414;2023-02-01T15:51:03;99707.50;;;4.34;100.00
68193;BME280;55012;47.562;18.414;2023-02-01T15:53:29;99717.72;;;4.32;100.00